Aérodrome :
LOGIN :

S'inscrire | Disclaimer

   EN    FR    IT 

 










Légende :    VFR   VFR Marginal   IFR   IFR Intensif   IFR Très Intensif
Visi : 
Plafond : 
>= 8 km
>= 3000ft
5 à 8 km
1000 à 3000 ft
1500m à 5 km
500 à 1000 ft
800 à 1500m
200 à 500 ft
< 800m
< 200 ft
Symboles :   Orages  Brouillard  Fortes neiges  Fortes précipitations  Vent > 20 kt
SIGMETs :   Divers  Orages  Givrage  Turbulence  Onde Orograph.  Cendres Volcan.






- Altitude de l'aérodrome : 49 ft
- Code IATA : GLZ


EHGR - Gilze-Rijen Airbase

DERNIER METAR :
  • 202355Z AUTO 23006KT 190V260 9999 ////// 11/09 Q1019 BLU

METARs EXPIRÉS :
  • 202325Z AUTO 22005KT 190V260 9999 ////// 11/09 Q1020 BLU
  • 202255Z AUTO 20003KT 170V230 9999 ////// 10/09 Q1019 BLU
  • 202225Z AUTO 22004KT 190V250 9999 ////// 11/09 Q1019 BLU
  • 202155Z AUTO 23005KT 200V270 9999 ////// 11/09 Q1019 BLU
  • 202125Z AUTO 23006KT 190V260 9999 ////// 11/10 Q1019 BLU

Prévision TAF périmée.



MET'MAP, la Météo Aéronautique d'un coup d'oeil ! - Copyright ORBIFLY Décembre 2007 - Disclaimer

ORBIFLY MET'MAP TEAM :

Programmation & Développement : Alexandra Zaïnal
Sur une idée originale de : Baudouin d'Aumeries
Soutien technique & logistique : Manuel Goepfert
Assistance : Marc-Olivier Méhu

Contact : metmap@orbifly.com




SOURCES & CREDITS :

   NOAA